Terminal Aerodrome Forecast
Issued by NWS

Home | Current Version | Previous Version | Text Only | Print | Product List | Glossary On
Versions: 1 2 3 4 5 6 7 8 9 10 11 12 13 14 15
957
FTUS45 KRIW 211124
TAFCPR
TAF
KCPR 211124Z 2112/2212 22034G48KT P6SM SCT200
     FM220000 22020G30KT P6SM BKN100
     FM220700 26016KT P6SM VCSH BKN060=

USA.gov is the U.S. government's official web portal to all federal, state and local government web resources and services.